createdAt,value
2022-07-26T00:02:00.259Z,23.35
2022-07-26T00:04:29.667Z,23.32
2022-07-26T00:06:57.462Z,23.31
2022-07-26T00:09:25.497Z,23.30
2022-07-26T00:11:53.328Z,23.35
2022-07-26T00:14:21.308Z,23.54
2022-07-26T00:16:49.249Z,23.58
2022-07-26T00:19:35.606Z,23.25
2022-07-26T00:22:22.325Z,23.54
2022-07-26T00:25:09.946Z,23.56
2022-07-26T00:27:38.331Z,23.59
2022-07-26T00:30:07.746Z,23.37
2022-07-26T00:32:36.392Z,23.52
2022-07-26T00:35:05.282Z,23.75
2022-07-26T00:37:34.819Z,23.81
2022-07-26T00:40:02.731Z,23.78
2022-07-26T00:42:30.515Z,23.70
2022-07-26T00:44:58.770Z,23.64
2022-07-26T00:47:27.111Z,23.52
2022-07-26T00:49:54.918Z,23.47
2022-07-26T00:52:22.865Z,23.31
2022-07-26T00:54:54.589Z,23.24
2022-07-26T00:57:23.552Z,23.21
2022-07-26T00:59:52.236Z,23.49
2022-07-26T01:02:20.622Z,23.15
2022-07-26T01:04:48.442Z,23.13
2022-07-26T01:07:16.419Z,23.17
2022-07-26T01:09:44.556Z,23.16
2022-07-26T01:12:13.719Z,23.21
2022-07-26T01:14:43.325Z,23.20
2022-07-26T01:17:11.187Z,23.10
2022-07-26T01:19:39.335Z,22.91
2022-07-26T01:22:14.153Z,22.76
2022-07-26T01:24:42.509Z,22.92
2022-07-26T01:27:10.382Z,22.87
2022-07-26T01:29:38.211Z,22.50
2022-07-26T01:32:07.044Z,22.63
2022-07-26T01:34:34.875Z,22.17
2022-07-26T01:37:04.041Z,22.13
2022-07-26T01:39:33.369Z,22.03
2022-07-26T01:42:01.355Z,21.46
2022-07-26T01:44:29.154Z,21.47
2022-07-26T01:46:56.927Z,21.51
2022-07-26T01:49:24.735Z,21.55
2022-07-26T01:51:52.600Z,21.59
2022-07-26T01:54:22.430Z,21.46
2022-07-26T01:56:53.963Z,21.59
2022-07-26T01:59:22.097Z,21.55
2022-07-26T02:01:49.885Z,21.51
2022-07-26T02:04:31.675Z,21.69
2022-07-26T02:06:59.657Z,21.43
2022-07-26T02:09:27.906Z,21.56
2022-07-26T02:12:04.410Z,21.65
2022-07-26T02:14:32.489Z,21.86
2022-07-26T02:17:00.702Z,21.72
2022-07-26T02:19:29.359Z,21.53
2022-07-26T02:21:58.001Z,21.13
2022-07-26T02:24:28.635Z,21.48
2022-07-26T02:26:56.933Z,21.57
2022-07-26T02:29:46.447Z,21.51
2022-07-26T02:32:14.571Z,21.59
2022-07-26T02:34:42.424Z,21.48
2022-07-26T02:37:10.244Z,21.49
2022-07-26T02:39:38.053Z,21.48
2022-07-26T02:42:06.154Z,21.34
2022-07-26T02:44:36.646Z,21.37
2022-07-26T02:47:04.314Z,21.35
2022-07-26T02:49:32.172Z,21.15
2022-07-26T02:51:59.967Z,20.89
2022-07-26T02:54:27.912Z,21.07
2022-07-26T02:56:55.742Z,21.11
2022-07-26T02:59:23.633Z,21.04
2022-07-26T03:01:52.797Z,21.00
2022-07-26T03:04:20.887Z,20.96
2022-07-26T03:06:48.678Z,20.94
2022-07-26T03:09:16.745Z,20.94
2022-07-26T03:11:44.664Z,20.82
2022-07-26T03:14:12.475Z,20.69
2022-07-26T03:16:40.331Z,20.74
2022-07-26T03:19:09.514Z,20.84
2022-07-26T03:21:37.311Z,20.92
2022-07-26T03:24:06.124Z,20.80
2022-07-26T03:26:34.247Z,20.72
2022-07-26T03:29:02.028Z,20.74
2022-07-26T03:31:30.081Z,20.76
2022-07-26T03:34:03.002Z,20.64
2022-07-26T03:36:32.887Z,20.59
2022-07-26T03:39:00.678Z,20.58
2022-07-26T03:41:31.601Z,20.37
2022-07-26T03:43:59.453Z,20.45
2022-07-26T03:46:27.773Z,20.40
2022-07-26T03:48:56.145Z,20.01
2022-07-26T03:51:24.125Z,19.53
2022-07-26T03:53:53.340Z,19.67
2022-07-26T03:56:28.932Z,19.60
2022-07-26T03:58:57.113Z,19.63
2022-07-26T04:01:24.985Z,19.66
2022-07-26T04:03:53.183Z,19.76
2022-07-26T04:06:23.255Z,19.89
2022-07-26T04:08:51.067Z,19.64
2022-07-26T04:11:20.507Z,19.68
2022-07-26T04:13:48.397Z,19.49
2022-07-26T04:16:16.211Z,19.73
2022-07-26T04:18:44.058Z,19.57
2022-07-26T04:21:11.931Z,19.70
2022-07-26T04:23:39.693Z,18.86
2022-07-26T04:26:07.603Z,19.44
2022-07-26T04:28:36.914Z,19.77
2022-07-26T04:31:04.812Z,19.64
2022-07-26T04:33:33.050Z,19.65
2022-07-26T04:36:01.106Z,19.50
2022-07-26T04:38:28.927Z,19.66
2022-07-26T04:40:58.050Z,19.62
2022-07-26T04:43:26.675Z,19.17
2022-07-26T04:45:57.622Z,19.41
2022-07-26T04:48:26.206Z,19.53
2022-07-26T04:50:54.727Z,19.85
2022-07-26T04:53:22.593Z,19.62
2022-07-26T04:55:50.404Z,19.91
2022-07-26T04:58:19.213Z,19.92
2022-07-26T05:01:08.914Z,19.81
2022-07-26T05:03:37.507Z,19.71
2022-07-26T05:06:05.745Z,19.75
2022-07-26T05:08:33.749Z,19.64
2022-07-26T05:11:01.628Z,19.52
2022-07-26T05:13:30.330Z,19.50
2022-07-26T05:15:59.001Z,19.46
2022-07-26T05:18:27.554Z,19.42
2022-07-26T05:20:59.472Z,19.21
2022-07-26T05:23:27.821Z,19.29
2022-07-26T05:25:56.385Z,19.32
2022-07-26T05:28:24.232Z,19.36
2022-07-26T05:30:52.326Z,19.63
2022-07-26T05:33:20.654Z,19.68
2022-07-26T05:35:48.584Z,19.81
2022-07-26T05:38:17.733Z,19.96
2022-07-26T05:40:50.291Z,20.07
2022-07-26T05:43:19.017Z,19.80
2022-07-26T05:45:46.970Z,19.69
2022-07-26T05:48:14.957Z,19.93
2022-07-26T05:50:42.870Z,20.05
2022-07-26T05:53:10.645Z,20.11
2022-07-26T05:55:40.021Z,20.05
2022-07-26T05:58:07.922Z,20.28
2022-07-26T06:00:36.077Z,20.25
2022-07-26T06:03:22.036Z,20.31
2022-07-26T06:05:50.641Z,20.85
2022-07-26T06:08:19.472Z,20.82
2022-07-26T06:10:49.341Z,20.95
2022-07-26T06:13:17.739Z,21.04
2022-07-26T06:15:45.638Z,21.36
2022-07-26T06:18:13.771Z,21.52
2022-07-26T06:20:42.345Z,21.59
2022-07-26T06:23:10.673Z,21.66
2022-07-26T06:25:38.810Z,21.62
2022-07-26T06:28:10.443Z,21.86
2022-07-26T06:30:39.149Z,21.84
2022-07-26T06:33:07.737Z,21.92
2022-07-26T06:35:36.150Z,22.14
2022-07-26T06:38:04.876Z,22.11
2022-07-26T06:40:34.047Z,22.21
2022-07-26T06:43:04.542Z,22.50
2022-07-26T06:45:35.435Z,22.52
2022-07-26T06:48:03.470Z,22.48
2022-07-26T06:50:31.664Z,22.49
2022-07-26T06:53:00.002Z,22.62
2022-07-26T06:55:28.262Z,22.62
2022-07-26T06:57:56.488Z,22.72
2022-07-26T07:00:24.874Z,22.81
2022-07-26T07:02:54.620Z,23.12
2022-07-26T07:05:23.229Z,23.31
2022-07-26T07:07:51.621Z,23.21
2022-07-26T07:10:20.548Z,23.45
2022-07-26T07:12:52.042Z,23.81
2022-07-26T07:15:20.415Z,23.87
2022-07-26T07:17:49.853Z,24.03
2022-07-26T07:20:19.728Z,24.00
2022-07-26T07:22:48.009Z,24.13
2022-07-26T07:25:16.544Z,24.39
2022-07-26T07:27:45.014Z,24.66
2022-07-26T07:30:17.192Z,24.82
2022-07-26T07:32:45.986Z,24.98
2022-07-26T07:35:14.538Z,25.23
2022-07-26T07:37:53.634Z,25.38
2022-07-26T07:40:23.402Z,25.38
2022-07-26T07:45:25.796Z,25.27
2022-07-26T07:47:54.254Z,24.95
2022-07-26T07:50:22.739Z,25.04
2022-07-26T07:52:55.606Z,24.93
2022-07-26T07:55:44.050Z,24.86
2022-07-26T07:58:15.788Z,24.60
2022-07-26T08:00:48.069Z,24.56
2022-07-26T08:03:18.624Z,25.17
2022-07-26T08:05:50.656Z,24.84
2022-07-26T08:08:22.063Z,25.65
2022-07-26T08:10:53.238Z,26.17
2022-07-26T08:13:22.828Z,26.30
2022-07-26T08:15:54.099Z,26.34
2022-07-26T08:18:25.676Z,26.89
2022-07-26T08:20:55.065Z,26.74
2022-07-26T08:23:23.808Z,26.20
2022-07-26T08:25:57.327Z,26.76
2022-07-26T08:31:19.414Z,26.17
2022-07-26T08:33:47.885Z,26.88
2022-07-26T08:36:17.036Z,26.51
2022-07-26T08:38:47.560Z,26.96
2022-07-26T08:41:16.963Z,27.49
2022-07-26T08:43:51.364Z,27.77
2022-07-26T08:46:26.921Z,27.53
2022-07-26T08:48:56.370Z,26.84
2022-07-26T08:51:26.751Z,27.76
2022-07-26T08:53:56.058Z,27.16
2022-07-26T08:56:26.394Z,27.39
2022-07-26T08:58:54.858Z,28.29
2022-07-26T09:01:24.452Z,28.24
2022-07-26T09:03:52.941Z,27.64
2022-07-26T09:06:28.337Z,27.12
2022-07-26T09:09:12.660Z,26.05
2022-07-26T09:11:40.847Z,26.32
2022-07-26T09:14:09.316Z,26.55
2022-07-26T09:16:40.250Z,27.21
2022-07-26T09:19:22.761Z,27.78
2022-07-26T09:21:51.376Z,28.58
2022-07-26T09:24:31.945Z,28.34
2022-07-26T09:27:01.461Z,27.40
2022-07-26T09:29:32.565Z,26.96
2022-07-26T09:32:19.756Z,27.17
2022-07-26T09:34:53.405Z,27.90
2022-07-26T09:37:35.046Z,28.53
2022-07-26T09:40:06.416Z,27.96
2022-07-26T09:42:34.529Z,27.97
2022-07-26T09:45:03.491Z,27.66
2022-07-26T09:47:40.965Z,27.64
2022-07-26T09:50:14.838Z,26.36
2022-07-26T09:53:02.666Z,27.47
2022-07-26T09:55:42.439Z,27.99
2022-07-26T09:58:14.093Z,28.63
2022-07-26T10:00:43.576Z,28.79
2022-07-26T10:03:13.427Z,28.73
2022-07-26T10:05:42.148Z,29.14
2022-07-26T10:08:10.980Z,28.45
2022-07-26T10:10:44.775Z,27.17
2022-07-26T10:13:13.296Z,26.30
2022-07-26T10:15:44.516Z,26.25
2022-07-26T10:18:47.511Z,27.15
2022-07-26T10:21:25.375Z,27.82
2022-07-26T10:23:56.970Z,28.65
2022-07-26T10:26:43.260Z,28.23
2022-07-26T10:29:29.490Z,27.90
2022-07-26T10:32:20.712Z,27.28
2022-07-26T10:34:50.221Z,26.63
2022-07-26T10:37:27.559Z,27.02
2022-07-26T10:40:19.165Z,28.61
2022-07-26T10:42:47.342Z,27.98
2022-07-26T10:45:21.377Z,27.33
2022-07-26T10:48:12.384Z,27.01
2022-07-26T10:50:42.951Z,26.78
2022-07-26T10:53:17.801Z,26.42
2022-07-26T10:55:47.482Z,26.95
2022-07-26T10:58:15.622Z,28.24
2022-07-26T11:00:55.728Z,29.27
2022-07-26T11:03:24.075Z,28.09
2022-07-26T11:05:53.353Z,27.30
2022-07-26T11:08:21.192Z,28.71
2022-07-26T11:10:49.131Z,28.19
2022-07-26T11:13:19.295Z,28.91
2022-07-26T11:15:49.009Z,28.26
2022-07-26T11:18:23.350Z,27.60
2022-07-26T11:20:55.422Z,27.78
2022-07-26T11:23:37.442Z,28.89
2022-07-26T11:26:10.851Z,29.20
2022-07-26T11:28:59.221Z,28.54
2022-07-26T11:31:50.604Z,28.40
2022-07-26T11:34:25.167Z,28.50
2022-07-26T11:36:56.365Z,28.48
2022-07-26T11:39:26.318Z,29.58
2022-07-26T11:41:58.839Z,29.05
2022-07-26T11:44:28.884Z,28.24
2022-07-26T11:46:57.979Z,29.81
2022-07-26T11:49:52.382Z,28.82
2022-07-26T11:52:24.944Z,29.38
2022-07-26T11:54:54.537Z,30.35
2022-07-26T11:57:22.830Z,30.57
2022-07-26T11:59:51.529Z,30.42
2022-07-26T12:02:22.381Z,29.24
2022-07-26T12:04:50.417Z,28.65
2022-07-26T12:07:21.515Z,28.78
2022-07-26T12:09:51.390Z,29.82
2022-07-26T12:12:24.278Z,30.23
2022-07-26T12:14:59.775Z,30.26
2022-07-26T12:17:34.923Z,29.13
2022-07-26T12:20:13.847Z,28.88
2022-07-26T12:22:54.432Z,29.77
2022-07-26T12:25:26.922Z,29.52
2022-07-26T12:27:54.945Z,30.37
2022-07-26T12:30:23.087Z,31.18
2022-07-26T12:32:52.086Z,31.34
2022-07-26T12:35:32.106Z,31.22
2022-07-26T12:38:01.414Z,31.20
2022-07-26T12:40:30.981Z,32.27
2022-07-26T12:43:02.013Z,32.15
2022-07-26T12:45:31.653Z,32.91
2022-07-26T12:48:00.750Z,32.80
2022-07-26T12:50:31.376Z,31.51
2022-07-26T12:53:03.629Z,30.79
2022-07-26T12:55:32.049Z,30.42
2022-07-26T12:58:00.750Z,31.39
2022-07-26T13:00:30.143Z,31.50
2022-07-26T13:02:58.461Z,31.58
2022-07-26T13:05:27.048Z,30.72
2022-07-26T13:07:55.555Z,30.13
2022-07-26T13:10:34.063Z,28.63
2022-07-26T13:13:03.682Z,28.33
2022-07-26T13:15:36.114Z,28.89
2022-07-26T13:18:07.270Z,29.37
2022-07-26T13:20:37.011Z,28.93
2022-07-26T13:23:04.869Z,29.15
2022-07-26T13:25:38.279Z,28.87
2022-07-26T13:28:08.439Z,29.16
2022-07-26T13:30:38.231Z,29.52
2022-07-26T13:33:06.356Z,29.29
2022-07-26T13:35:34.142Z,30.18
2022-07-26T13:38:01.958Z,30.86
2022-07-26T13:40:31.730Z,30.48
2022-07-26T13:43:01.294Z,30.71
2022-07-26T13:45:29.756Z,30.29
2022-07-26T13:47:58.841Z,31.04
2022-07-26T13:50:27.622Z,31.33
2022-07-26T13:52:56.227Z,31.89
2022-07-26T13:55:24.594Z,31.01
2022-07-26T13:57:55.591Z,30.07
2022-07-26T14:00:28.701Z,31.31
2022-07-26T14:02:59.464Z,31.71
2022-07-26T14:05:29.322Z,31.48
2022-07-26T14:07:57.298Z,31.71
2022-07-26T14:10:25.728Z,31.31
2022-07-26T14:12:53.863Z,31.84
2022-07-26T14:15:23.303Z,31.79
2022-07-26T14:17:53.012Z,32.45
2022-07-26T14:20:21.044Z,32.59
2022-07-26T14:22:49.325Z,31.69
2022-07-26T14:25:17.464Z,31.92
2022-07-26T14:27:45.232Z,32.29
2022-07-26T14:30:14.295Z,32.48
2022-07-26T14:32:42.422Z,31.91
2022-07-26T14:35:13.579Z,31.02
2022-07-26T14:37:44.701Z,31.35
2022-07-26T14:40:15.240Z,31.81
2022-07-26T14:42:43.145Z,31.88
2022-07-26T14:45:12.247Z,32.28
2022-07-26T14:47:40.160Z,32.21
2022-07-26T14:50:09.331Z,32.50
2022-07-26T14:52:40.130Z,31.86
2022-07-26T14:55:09.432Z,31.86
2022-07-26T14:57:39.442Z,31.57
2022-07-26T15:00:10.107Z,31.99
2022-07-26T15:02:39.788Z,31.01
2022-07-26T15:05:08.286Z,30.80
2022-07-26T15:07:36.165Z,31.42
2022-07-26T15:10:07.122Z,30.94
2022-07-26T15:12:35.084Z,31.12
2022-07-26T15:15:03.055Z,30.24
2022-07-26T15:17:31.132Z,30.38
2022-07-26T15:19:59.131Z,29.83
2022-07-26T15:22:26.976Z,29.23
2022-07-26T15:24:54.833Z,28.58
2022-07-26T15:27:24.058Z,28.99
2022-07-26T15:29:51.903Z,28.62
2022-07-26T15:32:21.579Z,29.41
2022-07-26T15:34:49.554Z,29.18
2022-07-26T15:37:17.533Z,30.23
2022-07-26T15:39:45.717Z,30.15
2022-07-26T15:42:15.261Z,30.61
2022-07-26T15:44:44.501Z,30.00
2022-07-26T15:47:15.442Z,30.35
2022-07-26T15:49:58.689Z,30.23
2022-07-26T15:52:26.706Z,29.98
2022-07-26T15:54:54.441Z,30.16
2022-07-26T15:57:22.236Z,29.63
2022-07-26T15:59:51.350Z,29.29
2022-07-26T16:02:19.534Z,28.64
2022-07-26T16:04:47.387Z,29.36
2022-07-26T16:07:16.614Z,29.13
2022-07-26T16:09:44.771Z,29.33
2022-07-26T16:12:12.562Z,29.23
2022-07-26T16:14:40.367Z,29.29
2022-07-26T16:17:09.665Z,29.46
2022-07-26T16:19:37.435Z,29.32
2022-07-26T16:22:05.566Z,28.79
2022-07-26T16:24:33.939Z,28.32
2022-07-26T16:27:01.870Z,28.78
2022-07-26T16:29:29.759Z,28.58
2022-07-26T16:31:57.759Z,28.20
2022-07-26T16:34:27.427Z,27.93
2022-07-26T16:36:55.223Z,27.97
2022-07-26T16:39:22.999Z,28.25
2022-07-26T16:41:50.796Z,28.70
2022-07-26T16:44:18.622Z,28.83
2022-07-26T16:46:46.898Z,28.90
2022-07-26T16:49:15.279Z,28.18
2022-07-26T16:51:44.743Z,27.90
2022-07-26T16:54:12.532Z,28.06
2022-07-26T16:56:40.432Z,27.96
2022-07-26T16:59:10.511Z,28.07
2022-07-26T17:01:38.941Z,27.65
2022-07-26T17:04:07.085Z,27.60
2022-07-26T17:06:35.827Z,27.49
2022-07-26T17:09:05.195Z,27.45
2022-07-26T17:11:36.140Z,27.12
2022-07-26T17:14:04.032Z,27.24
2022-07-26T17:16:33.119Z,27.43
2022-07-26T17:19:01.175Z,27.30
2022-07-26T17:21:29.010Z,27.46
2022-07-26T17:23:56.821Z,27.42
2022-07-26T17:26:25.989Z,27.53
2022-07-26T17:28:53.795Z,27.45
2022-07-26T17:31:21.601Z,27.30
2022-07-26T17:33:50.489Z,27.11
2022-07-26T17:36:27.345Z,27.34
2022-07-26T17:38:57.515Z,27.29
2022-07-26T17:41:32.588Z,27.05
2022-07-26T17:44:02.851Z,26.86
2022-07-26T17:46:32.488Z,26.66
2022-07-26T17:49:00.825Z,26.48
2022-07-26T17:51:28.676Z,26.79
2022-07-26T17:53:56.475Z,26.64
2022-07-26T17:56:24.229Z,26.54
2022-07-26T17:58:53.401Z,26.36
2022-07-26T18:01:21.302Z,26.80
2022-07-26T18:03:49.784Z,26.54
2022-07-26T18:06:18.559Z,26.42
2022-07-26T18:08:46.467Z,26.52
2022-07-26T18:11:14.651Z,26.57
2022-07-26T18:13:42.403Z,26.40
2022-07-26T18:16:12.896Z,26.50
2022-07-26T18:18:40.983Z,26.14
2022-07-26T18:21:09.029Z,26.24
2022-07-26T18:23:36.970Z,26.06
2022-07-26T18:26:05.181Z,26.03
2022-07-26T18:28:33.209Z,26.05
2022-07-26T18:31:01.100Z,26.03
2022-07-26T18:33:31.729Z,25.61
2022-07-26T18:36:00.999Z,25.43
2022-07-26T18:38:29.038Z,25.26
2022-07-26T18:40:57.303Z,25.44
2022-07-26T18:43:25.091Z,25.13
2022-07-26T18:45:53.364Z,25.09
2022-07-26T18:48:21.349Z,25.16
2022-07-26T18:50:53.486Z,25.07
2022-07-26T18:53:21.539Z,25.11
2022-07-26T18:55:49.670Z,25.02
2022-07-26T18:58:18.336Z,24.79
2022-07-26T19:00:49.872Z,24.83
2022-07-26T19:03:19.639Z,24.78
2022-07-26T19:05:47.521Z,24.50
2022-07-26T19:08:16.943Z,24.45
2022-07-26T19:10:45.020Z,24.40
2022-07-26T19:13:12.994Z,24.26
2022-07-26T19:15:41.113Z,24.25
2022-07-26T19:18:11.108Z,24.27
2022-07-26T19:20:39.007Z,24.05
2022-07-26T19:23:06.920Z,24.08
2022-07-26T19:25:36.034Z,24.03
2022-07-26T19:28:05.972Z,23.89
2022-07-26T19:30:36.802Z,23.64
2022-07-26T19:33:04.953Z,23.19
2022-07-26T19:35:32.910Z,23.01
2022-07-26T19:38:00.696Z,22.76
2022-07-26T19:40:30.287Z,22.63
2022-07-26T19:42:59.405Z,22.54
2022-07-26T19:45:27.219Z,22.43
2022-07-26T19:50:23.826Z,22.36
2022-07-26T19:52:51.645Z,22.32
2022-07-26T19:55:19.561Z,22.20
2022-07-26T19:57:47.327Z,22.23
2022-07-26T20:00:17.957Z,22.22
2022-07-26T20:02:46.214Z,22.16
2022-07-26T20:05:14.171Z,22.02
2022-07-26T20:07:43.310Z,22.01
2022-07-26T20:10:11.591Z,21.95
2022-07-26T20:12:39.548Z,21.94
2022-07-26T20:15:08.260Z,21.98
2022-07-26T20:17:39.741Z,21.79
2022-07-26T20:20:08.917Z,21.60
2022-07-26T20:22:37.045Z,21.57
2022-07-26T20:25:05.956Z,21.42
2022-07-26T20:27:33.883Z,21.40
2022-07-26T20:30:03.408Z,21.33
2022-07-26T20:32:31.201Z,21.31
2022-07-26T20:35:00.354Z,21.14
2022-07-26T20:37:28.127Z,21.34
2022-07-26T20:39:55.930Z,21.33
2022-07-26T20:42:24.455Z,21.33
2022-07-26T20:44:53.571Z,21.21
2022-07-26T20:47:22.410Z,20.99
2022-07-26T20:49:50.252Z,21.05
2022-07-26T20:52:19.542Z,21.17
2022-07-26T20:54:47.346Z,21.42
2022-07-26T20:57:15.142Z,21.48
2022-07-26T20:59:42.980Z,21.59
2022-07-26T21:02:10.942Z,21.64
2022-07-26T21:04:38.820Z,21.65
2022-07-26T21:07:06.628Z,21.41
2022-07-26T21:09:35.781Z,21.68
2022-07-26T21:12:03.831Z,21.60
2022-07-26T21:14:31.703Z,21.61
2022-07-26T21:16:59.665Z,21.61
2022-07-26T21:19:27.587Z,21.57
2022-07-26T21:21:56.953Z,21.70
2022-07-26T21:24:24.890Z,21.53
2022-07-26T21:26:55.225Z,21.58
2022-07-26T21:29:23.562Z,21.59
2022-07-26T21:31:51.423Z,21.59
2022-07-26T21:34:19.593Z,21.39
2022-07-26T21:36:47.472Z,21.47
2022-07-26T21:39:15.308Z,21.61
2022-07-26T21:41:43.129Z,21.67
2022-07-26T21:44:12.503Z,21.47
2022-07-26T21:46:40.407Z,21.59
2022-07-26T21:49:08.571Z,21.35
2022-07-26T21:51:36.665Z,21.47
2022-07-26T21:54:04.755Z,21.47
2022-07-26T21:56:32.505Z,21.09
2022-07-26T21:59:01.028Z,21.07
2022-07-26T22:01:30.209Z,21.23
2022-07-26T22:03:58.055Z,21.16
2022-07-26T22:06:26.000Z,21.03
2022-07-26T22:08:53.800Z,20.78
2022-07-26T22:11:21.810Z,20.91
2022-07-26T22:13:49.619Z,20.95
2022-07-26T22:16:17.532Z,21.04
2022-07-26T22:18:46.768Z,20.88
2022-07-26T22:21:14.896Z,21.11
2022-07-26T22:23:42.777Z,20.91
2022-07-26T22:26:10.889Z,20.70
2022-07-26T22:28:39.024Z,20.90
2022-07-26T22:31:06.791Z,20.81
2022-07-26T22:33:34.588Z,20.93
2022-07-26T22:36:03.782Z,20.50
2022-07-26T22:38:31.544Z,20.68
2022-07-26T22:40:59.863Z,20.81
2022-07-26T22:43:27.715Z,20.73
2022-07-26T22:45:55.601Z,20.54
2022-07-26T22:48:24.212Z,20.55
2022-07-26T22:50:52.175Z,20.42
2022-07-26T22:53:21.401Z,20.17
2022-07-26T22:55:49.244Z,20.24
2022-07-26T22:58:16.988Z,20.33
2022-07-26T23:00:45.053Z,20.28
2022-07-26T23:03:20.018Z,20.17
2022-07-26T23:05:50.031Z,20.11
2022-07-26T23:11:07.771Z,19.69
2022-07-26T23:13:35.691Z,19.70
2022-07-26T23:16:03.616Z,19.59
2022-07-26T23:18:32.397Z,19.57
2022-07-26T23:21:00.297Z,19.57
2022-07-26T23:23:29.762Z,19.39
2022-07-26T23:25:59.512Z,19.34
2022-07-26T23:28:37.666Z,19.47
2022-07-26T23:31:10.804Z,19.37
2022-07-26T23:33:51.539Z,19.39
2022-07-26T23:36:26.343Z,19.38
2022-07-26T23:38:54.769Z,19.21
2022-07-26T23:41:22.893Z,19.10
2022-07-26T23:43:52.441Z,19.14
2022-07-26T23:46:20.270Z,19.21
2022-07-26T23:48:48.280Z,19.12
2022-07-26T23:51:16.181Z,19.04
2022-07-26T23:53:44.047Z,18.97
2022-07-26T23:56:11.986Z,19.03
2022-07-26T23:58:39.878Z,18.92
